createdAt,value
2023-01-31T00:01:41.593Z,98604.72
2023-01-31T00:04:12.675Z,98596.56
2023-01-31T00:06:51.020Z,98587.13
2023-01-31T00:09:19.333Z,98599.56
2023-01-31T00:11:55.565Z,98594.31
2023-01-31T00:14:25.984Z,98609.88
2023-01-31T00:16:53.783Z,98610.50
2023-01-31T00:19:20.955Z,98610.94
2023-01-31T00:21:47.841Z,98630.38
2023-01-31T00:24:15.873Z,98631.72
2023-01-31T00:26:43.092Z,98599.94
2023-01-31T00:29:11.243Z,98611.38
2023-01-31T00:31:39.137Z,98614.94
2023-01-31T00:34:07.703Z,98625.44
2023-01-31T00:36:37.620Z,98624.56
2023-01-31T00:39:07.472Z,98600.28
2023-01-31T00:41:37.533Z,98617.69
2023-01-31T00:44:06.785Z,98616.81
2023-01-31T00:46:33.825Z,98622.09
2023-01-31T00:49:02.050Z,98625.38
2023-01-31T00:51:28.951Z,98622.06
2023-01-31T00:53:56.126Z,98622.00
2023-01-31T00:56:25.616Z,98635.88
2023-01-31T00:58:53.962Z,98633.19
2023-01-31T01:01:26.381Z,98641.00
2023-01-31T01:03:56.140Z,98630.44
2023-01-31T01:06:23.739Z,98633.03
2023-01-31T01:08:51.009Z,98626.13
2023-01-31T01:11:25.585Z,98626.09
2023-01-31T01:13:53.284Z,98616.38
2023-01-31T01:16:28.065Z,98622.47
2023-01-31T01:18:55.453Z,98635.53
2023-01-31T01:21:30.109Z,98632.88
2023-01-31T01:24:02.041Z,98633.81
2023-01-31T01:26:33.055Z,98630.25
2023-01-31T01:29:02.465Z,98633.81
2023-01-31T01:31:30.558Z,98645.13
2023-01-31T01:34:04.749Z,98638.88
2023-01-31T01:36:36.914Z,98640.69
2023-01-31T01:39:09.077Z,98645.91
2023-01-31T01:41:38.007Z,98656.38
2023-01-31T01:44:46.852Z,98655.47
2023-01-31T01:47:44.660Z,98652.09
2023-01-31T01:50:36.670Z,98658.88
2023-01-31T01:53:15.182Z,98662.53
2023-01-31T01:55:42.354Z,98664.34
2023-01-31T01:58:24.346Z,98666.91
2023-01-31T02:00:52.850Z,98663.38
2023-01-31T02:03:20.256Z,98672.13
2023-01-31T02:05:53.525Z,98670.34
2023-01-31T02:08:25.787Z,98675.47
2023-01-31T02:11:00.864Z,98684.13
2023-01-31T02:13:28.774Z,98698.91
2023-01-31T02:15:56.730Z,98700.59
2023-01-31T02:18:26.602Z,98702.25
2023-01-31T02:21:37.171Z,98716.22
2023-01-31T02:24:12.998Z,98717.91
2023-01-31T02:27:30.691Z,98715.19
2023-01-31T02:30:44.005Z,98721.31
2023-01-31T02:33:56.750Z,98721.31
2023-01-31T02:36:55.164Z,98711.78
2023-01-31T02:39:41.267Z,98717.88
2023-01-31T02:42:23.814Z,98719.75
2023-01-31T02:45:12.573Z,98726.66
2023-01-31T02:48:13.473Z,98726.50
2023-01-31T02:51:07.927Z,98721.44
2023-01-31T02:53:43.693Z,98718.94
2023-01-31T02:56:26.320Z,98719.69
2023-01-31T02:59:15.085Z,98725.75
2023-01-31T03:01:48.486Z,98724.91
2023-01-31T03:04:15.796Z,98744.06
2023-01-31T03:07:00.332Z,98738.09
2023-01-31T03:09:39.875Z,98770.31
2023-01-31T03:12:21.697Z,98746.03
2023-01-31T03:16:05.730Z,98756.44
2023-01-31T03:18:53.177Z,98754.81
2023-01-31T03:21:30.170Z,98754.69
2023-01-31T03:23:58.308Z,98766.84
2023-01-31T03:26:28.333Z,98769.28
2023-01-31T03:28:58.718Z,98760.56
2023-01-31T03:31:38.978Z,98773.63
2023-01-31T03:34:12.752Z,98773.69
2023-01-31T03:36:49.460Z,98778.88
2023-01-31T03:39:37.772Z,98779.69
2023-01-31T03:42:25.183Z,98798.78
2023-01-31T03:45:04.906Z,98808.38
2023-01-31T03:47:41.194Z,98817.16
2023-01-31T03:50:16.827Z,98814.59
2023-01-31T03:52:58.528Z,98820.69
2023-01-31T03:55:37.576Z,98814.97
2023-01-31T03:58:08.323Z,98819.72
2023-01-31T04:00:40.476Z,98811.84
2023-01-31T04:03:24.027Z,98815.34
2023-01-31T04:05:51.421Z,98817.22
2023-01-31T04:08:18.631Z,98812.00
2023-01-31T04:10:46.073Z,98810.31
2023-01-31T04:13:13.827Z,98815.44
2023-01-31T04:15:41.303Z,98835.41
2023-01-31T04:18:08.281Z,98813.75
2023-01-31T04:20:35.420Z,98800.66
2023-01-31T04:23:04.485Z,98792.75
2023-01-31T04:25:32.860Z,98800.53
2023-01-31T04:28:00.509Z,98802.19
2023-01-31T04:30:27.990Z,98801.34
2023-01-31T04:32:54.828Z,98796.94
2023-01-31T04:35:22.403Z,98799.56
2023-01-31T04:37:49.460Z,98810.09
2023-01-31T04:40:17.020Z,98815.31
2023-01-31T04:42:45.578Z,98824.75
2023-01-31T04:45:13.188Z,98826.44
2023-01-31T04:47:40.175Z,98830.75
2023-01-31T04:50:09.867Z,98844.66
2023-01-31T04:52:37.159Z,98837.66
2023-01-31T04:55:04.861Z,98844.69
2023-01-31T04:57:32.006Z,98846.34
2023-01-31T04:59:59.155Z,98840.19
2023-01-31T05:02:26.168Z,98834.13
2023-01-31T05:04:53.418Z,98840.25
2023-01-31T05:07:20.348Z,98842.84
2023-01-31T05:09:47.595Z,98850.56
2023-01-31T05:12:14.465Z,98854.06
2023-01-31T05:14:41.788Z,98854.03
2023-01-31T05:17:08.946Z,98850.50
2023-01-31T05:19:36.238Z,98855.84
2023-01-31T05:22:03.918Z,98849.03
2023-01-31T05:24:34.364Z,98853.31
2023-01-31T05:27:02.571Z,98856.00
2023-01-31T05:29:33.553Z,98854.25
2023-01-31T05:32:03.793Z,98859.47
2023-01-31T05:34:33.267Z,98862.00
2023-01-31T05:37:01.003Z,98857.50
2023-01-31T05:39:29.452Z,98870.50
2023-01-31T05:41:56.942Z,98860.91
2023-01-31T05:44:24.306Z,98856.47
2023-01-31T05:46:51.267Z,98868.63
2023-01-31T05:49:18.811Z,98877.28
2023-01-31T05:51:45.811Z,98865.06
2023-01-31T05:54:13.095Z,98858.06
2023-01-31T05:56:40.095Z,98860.56
2023-01-31T05:59:07.417Z,98869.19
2023-01-31T06:01:34.457Z,98865.72
2023-01-31T06:04:02.029Z,98865.66
2023-01-31T06:06:29.188Z,98874.41
2023-01-31T06:08:56.627Z,98872.56
2023-01-31T06:11:25.228Z,98875.13
2023-01-31T06:13:52.585Z,98886.41
2023-01-31T06:16:19.756Z,98886.41
2023-01-31T06:18:47.120Z,98882.09
2023-01-31T06:21:16.453Z,98883.91
2023-01-31T06:23:46.298Z,98884.78
2023-01-31T06:26:13.809Z,98889.03
2023-01-31T06:28:41.053Z,98892.53
2023-01-31T06:31:12.553Z,98892.56
2023-01-31T06:33:46.972Z,98894.34
2023-01-31T06:36:18.418Z,98895.94
2023-01-31T06:38:50.919Z,98898.50
2023-01-31T06:41:20.486Z,98911.50
2023-01-31T06:43:48.402Z,98913.16
2023-01-31T06:46:15.409Z,98914.84
2023-01-31T06:48:42.817Z,98917.56
2023-01-31T06:51:10.650Z,98920.16
2023-01-31T06:53:37.882Z,98930.59
2023-01-31T06:56:05.431Z,98933.19
2023-01-31T06:58:33.858Z,98937.59
2023-01-31T07:01:10.317Z,98933.38
2023-01-31T07:03:38.416Z,98940.19
2023-01-31T07:06:07.723Z,98929.63
2023-01-31T07:08:36.351Z,98942.81
2023-01-31T07:11:05.126Z,98952.34
2023-01-31T07:13:32.898Z,98958.44
2023-01-31T07:15:59.996Z,98965.50
2023-01-31T07:18:27.706Z,98959.34
2023-01-31T07:20:54.654Z,98968.16
2023-01-31T07:23:21.824Z,98976.06
2023-01-31T07:25:48.901Z,98980.41
2023-01-31T07:28:16.339Z,98985.66
2023-01-31T07:30:44.011Z,98979.56
2023-01-31T07:33:11.925Z,98980.44
2023-01-31T07:35:38.941Z,98976.97
2023-01-31T07:38:06.156Z,98983.06
2023-01-31T07:40:33.295Z,98980.47
2023-01-31T07:43:00.902Z,98983.06
2023-01-31T07:45:28.201Z,98983.09
2023-01-31T07:47:59.494Z,98975.25
2023-01-31T07:50:27.792Z,98985.66
2023-01-31T07:52:57.937Z,98976.94
2023-01-31T07:55:25.982Z,98974.31
2023-01-31T07:57:53.202Z,98980.41
2023-01-31T08:00:39.692Z,98971.72
2023-01-31T08:03:33.466Z,98975.06
2023-01-31T08:06:11.104Z,98975.19
2023-01-31T08:08:40.724Z,98983.88
2023-01-31T08:11:08.282Z,98981.16
2023-01-31T08:13:36.350Z,98984.63
2023-01-31T08:16:06.740Z,98989.78
2023-01-31T08:18:34.392Z,98987.06
2023-01-31T08:21:01.528Z,98987.84
2023-01-31T08:23:30.618Z,98990.41
2023-01-31T08:26:20.653Z,98998.31
2023-01-31T08:28:50.777Z,98992.16
2023-01-31T08:31:27.589Z,98978.25
2023-01-31T08:33:56.099Z,98989.44
2023-01-31T08:36:26.431Z,98986.84
2023-01-31T08:38:55.296Z,98993.75
2023-01-31T08:41:24.370Z,98992.97
2023-01-31T08:43:56.715Z,98994.84
2023-01-31T08:46:31.691Z,98994.81
2023-01-31T08:49:01.716Z,98993.06
2023-01-31T08:51:29.300Z,98991.34
2023-01-31T08:53:57.253Z,99009.50
2023-01-31T08:56:28.121Z,99000.69
2023-01-31T08:58:57.644Z,99001.56
2023-01-31T09:01:25.030Z,99008.41
2023-01-31T09:03:57.002Z,99010.13
2023-01-31T09:06:27.620Z,99003.16
2023-01-31T09:08:59.035Z,99000.53
2023-01-31T09:11:30.360Z,99007.44
2023-01-31T09:13:58.382Z,99004.22
2023-01-31T09:16:25.504Z,99012.00
2023-01-31T09:18:56.386Z,99010.09
2023-01-31T09:21:24.536Z,99003.78
2023-01-31T09:23:58.960Z,99000.16
2023-01-31T09:26:26.573Z,99004.47
2023-01-31T09:28:54.484Z,98998.28
2023-01-31T09:31:21.987Z,98997.41
2023-01-31T09:33:49.687Z,98993.03
2023-01-31T09:36:21.342Z,99004.09
2023-01-31T09:38:49.161Z,98998.88
2023-01-31T09:41:42.292Z,99006.59
2023-01-31T09:44:21.578Z,99023.03
2023-01-31T09:47:35.466Z,99016.06
2023-01-31T09:50:18.685Z,99018.69
2023-01-31T09:52:46.112Z,99028.34
2023-01-31T09:55:23.158Z,99018.72
2023-01-31T09:58:24.213Z,99018.00
2023-01-31T10:01:15.654Z,99010.88
2023-01-31T10:04:29.491Z,99020.50
2023-01-31T10:07:29.478Z,99018.66
2023-01-31T10:10:19.140Z,99019.56
2023-01-31T10:12:57.955Z,99018.69
2023-01-31T10:16:06.128Z,99016.69
2023-01-31T10:18:42.218Z,99013.13
2023-01-31T10:21:23.227Z,99008.88
2023-01-31T10:24:03.863Z,99000.03
2023-01-31T10:26:36.945Z,98999.75
2023-01-31T10:29:18.538Z,98998.09
2023-01-31T10:31:59.060Z,98985.16
2023-01-31T10:34:40.010Z,98986.84
2023-01-31T10:37:37.730Z,98983.06
2023-01-31T10:40:19.790Z,98983.19
2023-01-31T10:42:55.516Z,98976.22
2023-01-31T10:45:31.450Z,98990.16
2023-01-31T10:48:14.303Z,98991.75
2023-01-31T10:51:17.556Z,98991.84
2023-01-31T10:54:36.240Z,98999.91
2023-01-31T10:57:03.649Z,98986.59
2023-01-31T10:59:43.900Z,98991.84
2023-01-31T11:02:25.921Z,98983.44
2023-01-31T11:04:57.915Z,98984.19
2023-01-31T11:07:30.912Z,98952.78
2023-01-31T11:10:00.186Z,98964.81
2023-01-31T11:12:54.987Z,98962.38
2023-01-31T11:15:27.053Z,98970.81
2023-01-31T11:18:00.832Z,98954.03
2023-01-31T11:20:32.421Z,98941.25
2023-01-31T11:23:02.416Z,98950.69
2023-01-31T11:25:33.945Z,98936.38
2023-01-31T11:28:17.739Z,98936.84
2023-01-31T11:30:50.632Z,98935.13
2023-01-31T11:33:45.261Z,98917.75
2023-01-31T11:36:17.288Z,98916.09
2023-01-31T11:38:44.645Z,98916.13
2023-01-31T11:41:37.926Z,98917.75
2023-01-31T11:44:17.437Z,98906.59
2023-01-31T11:47:03.660Z,98911.81
2023-01-31T11:49:42.953Z,98898.44
2023-01-31T11:52:29.206Z,98893.97
2023-01-31T11:55:03.074Z,98899.75
2023-01-31T11:57:35.937Z,98895.41
2023-01-31T12:00:28.992Z,98887.53
2023-01-31T12:03:13.794Z,98893.91
2023-01-31T12:05:49.707Z,98890.53
2023-01-31T12:08:36.308Z,98880.78
2023-01-31T12:11:30.819Z,98873.94
2023-01-31T12:14:19.560Z,98871.38
2023-01-31T12:16:53.602Z,98871.03
2023-01-31T12:19:54.272Z,98863.38
2023-01-31T12:22:42.235Z,98857.22
2023-01-31T12:25:26.465Z,98855.47
2023-01-31T12:28:24.542Z,98865.22
2023-01-31T12:31:32.026Z,98851.22
2023-01-31T12:34:26.690Z,98860.31
2023-01-31T12:37:15.615Z,98846.41
2023-01-31T12:39:51.681Z,98845.91
2023-01-31T12:42:24.968Z,98838.84
2023-01-31T12:45:14.573Z,98839.56
2023-01-31T12:47:56.506Z,98847.47
2023-01-31T12:50:59.578Z,98834.59
2023-01-31T12:53:41.667Z,98827.38
2023-01-31T12:56:47.148Z,98815.34
2023-01-31T13:00:17.994Z,98818.03
2023-01-31T13:03:16.322Z,98817.31
2023-01-31T13:06:06.801Z,98812.19
2023-01-31T13:08:41.190Z,98807.88
2023-01-31T13:11:21.104Z,98805.91
2023-01-31T13:14:01.705Z,98802.47
2023-01-31T13:16:41.273Z,98804.84
2023-01-31T13:19:31.700Z,98804.72
2023-01-31T13:22:08.744Z,98791.63
2023-01-31T13:24:44.972Z,98787.41
2023-01-31T13:27:27.971Z,98784.00
2023-01-31T13:30:08.272Z,98778.66
2023-01-31T13:32:43.341Z,98774.09
2023-01-31T13:35:24.788Z,98774.09
2023-01-31T13:37:59.063Z,98771.25
2023-01-31T13:40:31.401Z,98778.16
2023-01-31T13:43:06.462Z,98785.41
2023-01-31T13:45:44.133Z,98780.25
2023-01-31T13:48:29.265Z,98782.16
2023-01-31T13:51:03.481Z,98780.47
2023-01-31T13:53:38.341Z,98766.69
2023-01-31T13:56:18.004Z,98760.75
2023-01-31T13:58:48.664Z,98751.72
2023-01-31T14:01:22.834Z,98743.66
2023-01-31T14:04:18.457Z,98738.34
2023-01-31T14:07:17.851Z,98725.31
2023-01-31T14:10:07.553Z,98725.34
2023-01-31T14:12:37.781Z,98719.34
2023-01-31T14:15:47.449Z,98724.50
2023-01-31T14:18:44.670Z,98726.22
2023-01-31T14:21:30.328Z,98741.25
2023-01-31T14:24:04.308Z,98750.06
2023-01-31T14:26:43.718Z,98744.56
2023-01-31T14:29:19.791Z,98735.34
2023-01-31T14:31:50.383Z,98741.38
2023-01-31T14:34:22.682Z,98737.03
2023-01-31T14:37:38.398Z,98724.56
2023-01-31T14:40:11.688Z,98713.19
2023-01-31T14:43:13.307Z,98707.84
2023-01-31T14:46:27.321Z,98701.84
2023-01-31T14:49:29.293Z,98692.25
2023-01-31T14:52:53.103Z,98693.03
2023-01-31T14:55:46.385Z,98685.19
2023-01-31T14:58:27.071Z,98679.94
2023-01-31T15:00:59.131Z,98665.91
2023-01-31T15:03:52.933Z,98669.41
2023-01-31T15:06:41.118Z,98681.53
2023-01-31T15:09:35.816Z,98672.88
2023-01-31T15:12:03.159Z,98672.03
2023-01-31T15:14:36.943Z,98684.41
2023-01-31T15:17:36.684Z,98677.56
2023-01-31T15:20:22.414Z,98671.69
2023-01-31T15:22:52.463Z,98676.91
2023-01-31T15:25:42.930Z,98670.00
2023-01-31T15:28:17.459Z,98664.78
2023-01-31T15:30:46.835Z,98661.59
2023-01-31T15:33:24.481Z,98658.94
2023-01-31T15:36:32.297Z,98648.34
2023-01-31T15:39:32.499Z,98650.97
2023-01-31T15:42:22.177Z,98649.34
2023-01-31T15:44:49.189Z,98649.19
2023-01-31T15:47:24.025Z,98652.16
2023-01-31T15:49:50.914Z,98648.91
2023-01-31T15:52:22.532Z,98648.06
2023-01-31T15:54:57.989Z,98648.25
2023-01-31T15:57:36.791Z,98651.63
2023-01-31T16:00:04.999Z,98648.19
2023-01-31T16:02:37.966Z,98662.34
2023-01-31T16:05:07.520Z,98658.94
2023-01-31T16:07:35.041Z,98661.53
2023-01-31T16:10:02.927Z,98660.28
2023-01-31T16:12:33.241Z,98654.72
2023-01-31T16:15:08.037Z,98649.72
2023-01-31T16:17:35.621Z,98654.91
2023-01-31T16:20:02.969Z,98659.53
2023-01-31T16:22:32.178Z,98650.94
2023-01-31T16:25:03.624Z,98660.47
2023-01-31T16:27:37.414Z,98669.16
2023-01-31T16:30:05.401Z,98654.31
2023-01-31T16:32:38.804Z,98651.09
2023-01-31T16:35:37.164Z,98656.00
2023-01-31T16:38:19.284Z,98655.69
2023-01-31T16:40:55.708Z,98649.66
2023-01-31T16:43:34.859Z,98643.56
2023-01-31T16:46:20.054Z,98647.13
2023-01-31T16:49:28.380Z,98639.41
2023-01-31T16:52:18.241Z,98634.78
2023-01-31T16:54:53.323Z,98628.81
2023-01-31T16:57:25.482Z,98643.41
2023-01-31T16:59:54.432Z,98653.97
2023-01-31T17:02:30.013Z,98637.47
2023-01-31T17:05:09.167Z,98643.44
2023-01-31T17:07:37.288Z,98643.47
2023-01-31T17:10:09.315Z,98638.44
2023-01-31T17:12:41.064Z,98636.50
2023-01-31T17:15:18.986Z,98635.72
2023-01-31T17:17:47.121Z,98618.44
2023-01-31T17:20:20.985Z,98618.28
2023-01-31T17:22:56.950Z,98618.53
2023-01-31T17:25:34.865Z,98624.25
2023-01-31T17:28:02.095Z,98615.34
2023-01-31T17:30:31.386Z,98614.63
2023-01-31T17:32:59.824Z,98621.66
2023-01-31T17:35:38.910Z,98611.19
2023-01-31T17:38:06.592Z,98617.06
2023-01-31T17:40:34.529Z,98607.34
2023-01-31T17:43:05.114Z,98602.94
2023-01-31T17:45:33.156Z,98608.28
2023-01-31T17:48:00.212Z,98606.72
2023-01-31T17:50:29.126Z,98612.44
2023-01-31T17:52:57.054Z,98611.50
2023-01-31T17:55:25.186Z,98609.78
2023-01-31T17:57:52.200Z,98612.47
2023-01-31T18:00:21.384Z,98612.13
2023-01-31T18:02:48.369Z,98619.97
2023-01-31T18:05:24.593Z,98613.19
2023-01-31T18:07:54.511Z,98613.03
2023-01-31T18:10:21.876Z,98615.22
2023-01-31T18:12:49.010Z,98616.19
2023-01-31T18:15:16.555Z,98609.69
2023-01-31T18:17:43.645Z,98624.31
2023-01-31T18:20:11.848Z,98619.44
2023-01-31T18:22:38.843Z,98618.84
2023-01-31T18:25:06.732Z,98621.28
2023-01-31T18:27:33.704Z,98615.88
2023-01-31T18:30:00.907Z,98618.00
2023-01-31T18:32:27.965Z,98597.00
2023-01-31T18:34:55.334Z,98595.06
2023-01-31T18:37:22.304Z,98587.34
2023-01-31T18:39:53.244Z,98594.16
2023-01-31T18:42:21.034Z,98565.28
2023-01-31T18:44:48.228Z,98572.34
2023-01-31T18:47:16.475Z,98560.25
2023-01-31T18:49:43.737Z,98575.00
2023-01-31T18:52:10.960Z,98572.38
2023-01-31T18:54:38.315Z,98576.72
2023-01-31T18:57:05.671Z,98582.03
2023-01-31T18:59:35.961Z,98584.06
2023-01-31T19:02:03.010Z,98572.28
2023-01-31T19:04:30.453Z,98561.72
2023-01-31T19:06:57.494Z,98587.22
2023-01-31T19:09:25.035Z,98584.09
2023-01-31T19:11:52.038Z,98566.56
2023-01-31T19:14:19.515Z,98584.75
2023-01-31T19:16:46.530Z,98568.31
2023-01-31T19:19:14.034Z,98575.88
2023-01-31T19:21:41.394Z,98570.16
2023-01-31T19:24:13.636Z,98582.94
2023-01-31T19:26:42.122Z,98596.22
2023-01-31T19:29:14.803Z,98597.13
2023-01-31T19:31:42.146Z,98596.03
2023-01-31T19:34:10.160Z,98592.66
2023-01-31T19:36:40.694Z,98602.13
2023-01-31T19:39:12.898Z,98616.84
2023-01-31T19:41:44.764Z,98609.72
2023-01-31T19:44:14.228Z,98592.41
2023-01-31T19:46:44.587Z,98595.91
2023-01-31T19:49:14.783Z,98588.94
2023-01-31T19:51:44.022Z,98602.72
2023-01-31T19:54:18.302Z,98600.97
2023-01-31T19:56:46.079Z,98589.84
2023-01-31T19:59:14.138Z,98584.63
2023-01-31T20:01:41.154Z,98591.66
2023-01-31T20:04:08.898Z,98583.84
2023-01-31T20:06:36.137Z,98578.63
2023-01-31T20:09:08.188Z,98574.13
2023-01-31T20:11:36.715Z,98579.47
2023-01-31T20:14:04.687Z,98579.53
2023-01-31T20:16:31.998Z,98573.34
2023-01-31T20:19:01.817Z,98563.94
2023-01-31T20:21:28.777Z,98569.75
2023-01-31T20:23:55.977Z,98569.03
2023-01-31T20:26:24.391Z,98566.53
2023-01-31T20:28:52.267Z,98560.34
2023-01-31T20:31:19.586Z,98557.72
2023-01-31T20:33:46.994Z,98570.94
2023-01-31T20:36:14.388Z,98578.72
2023-01-31T20:38:41.628Z,98586.69
2023-01-31T20:41:09.286Z,98594.53
2023-01-31T20:43:37.502Z,98604.03
2023-01-31T20:46:16.218Z,98590.78
2023-01-31T20:48:43.590Z,98594.19
2023-01-31T20:51:11.413Z,98599.53
2023-01-31T20:53:39.424Z,98602.25
2023-01-31T20:56:11.138Z,98595.94
2023-01-31T20:58:41.493Z,98599.34
2023-01-31T21:01:11.196Z,98591.34
2023-01-31T21:03:38.577Z,98588.88
2023-01-31T21:06:06.707Z,98592.25
2023-01-31T21:08:35.634Z,98584.41
2023-01-31T21:11:08.137Z,98588.66
2023-01-31T21:13:36.379Z,98589.50
2023-01-31T21:16:07.417Z,98586.66
2023-01-31T21:18:38.799Z,98588.53
2023-01-31T21:21:12.863Z,98577.03
2023-01-31T21:23:42.035Z,98568.28
2023-01-31T21:26:11.256Z,98573.34
2023-01-31T21:28:40.084Z,98568.19
2023-01-31T21:31:12.784Z,98567.31
2023-01-31T21:33:40.451Z,98571.72
2023-01-31T21:36:10.587Z,98571.75
2023-01-31T21:38:39.352Z,98570.13
2023-01-31T21:41:25.004Z,98575.31
2023-01-31T21:43:52.390Z,98569.25
2023-01-31T21:46:19.901Z,98564.78
2023-01-31T21:48:47.560Z,98573.50
2023-01-31T21:51:17.075Z,98560.66
2023-01-31T21:53:45.524Z,98564.00
2023-01-31T21:56:15.078Z,98552.50
2023-01-31T21:58:43.475Z,98563.88
2023-01-31T22:01:18.022Z,98555.28
2023-01-31T22:03:50.770Z,98562.31
2023-01-31T22:06:30.982Z,98562.28
2023-01-31T22:09:01.260Z,98564.69
2023-01-31T22:11:33.085Z,98575.03
2023-01-31T22:14:04.454Z,98576.06
2023-01-31T22:16:31.542Z,98574.38
2023-01-31T22:19:00.916Z,98568.88
2023-01-31T22:21:31.938Z,98578.78
2023-01-31T22:24:02.833Z,98568.81
2023-01-31T22:26:36.951Z,98562.84
2023-01-31T22:29:07.353Z,98554.06
2023-01-31T22:31:34.818Z,98546.31
2023-01-31T22:34:06.950Z,98541.16
2023-01-31T22:36:34.935Z,98545.81
2023-01-31T22:39:02.475Z,98545.69
2023-01-31T22:41:29.540Z,98548.25
2023-01-31T22:43:56.800Z,98551.94
2023-01-31T22:46:29.280Z,98562.34
2023-01-31T22:48:57.836Z,98563.09
2023-01-31T22:51:28.673Z,98565.63
2023-01-31T22:53:58.092Z,98552.56
2023-01-31T22:56:29.762Z,98555.69
2023-01-31T22:59:00.433Z,98550.63
2023-01-31T23:01:35.079Z,98538.34
2023-01-31T23:04:05.922Z,98541.06
2023-01-31T23:06:34.440Z,98541.25
2023-01-31T23:09:01.765Z,98536.88
2023-01-31T23:11:28.921Z,98537.66
2023-01-31T23:13:57.565Z,98542.91
2023-01-31T23:16:45.720Z,98541.16
2023-01-31T23:19:15.475Z,98540.47
2023-01-31T23:21:44.752Z,98533.31
2023-01-31T23:24:14.917Z,98544.53
2023-01-31T23:26:43.289Z,98543.81
2023-01-31T23:29:11.055Z,98550.88
2023-01-31T23:31:38.643Z,98545.44
2023-01-31T23:34:07.574Z,98560.34
2023-01-31T23:36:35.103Z,98560.44
2023-01-31T23:39:02.799Z,98563.78
2023-01-31T23:41:29.743Z,98563.06
2023-01-31T23:43:57.144Z,98561.38
2023-01-31T23:46:24.144Z,98564.69
2023-01-31T23:48:51.467Z,98562.09
2023-01-31T23:51:18.546Z,98568.25
2023-01-31T23:53:45.954Z,98574.25
2023-01-31T23:56:13.184Z,98565.50
2023-01-31T23:58:40.302Z,98570.75
